Time;durP1;ratioP1;P1;durP2;ratioP2;P2;SDS_P1;SDS_P2;PMS_P1;PMS_P2;Temp;Humidity;BMP_temperature;BMP_pressure;BME280_temperature;BME280_humidity;BME280_pressure;Samples;Min_cycle;Max_cycle;Signal;HPM_P1;HPM_P2
2022/11/21 00:00:45;;;;;;;12.90;4.95;;;6.10;99.90;;;;;;4949117;29;20036;-76
2022/11/21 00:03:12;;;;;;;10.43;5.30;;;6.10;99.90;;;;;;4949198;29;20024;-76
2022/11/21 00:05:43;;;;;;;18.65;6.43;;;6.10;99.90;;;;;;4948913;29;20034;-76
2022/11/21 00:08:10;;;;;;;19.15;6.50;;;6.10;99.90;;;;;;4949324;29;20034;-76
2022/11/21 00:10:37;;;;;;;6.28;5.47;;;6.00;99.90;;;;;;4932050;29;20031;-76
2022/11/21 00:13:03;;;;;;;10.68;5.72;;;6.00;99.90;;;;;;4948704;29;20030;-76
2022/11/21 00:15:29;;;;;;;12.55;5.53;;;5.90;99.90;;;;;;4949056;29;20393;-76
2022/11/21 00:17:54;;;;;;;8.32;5.60;;;5.90;99.90;;;;;;4948817;29;20039;-76
2022/11/21 00:20:21;;;;;;;15.43;6.85;;;5.90;99.90;;;;;;4931977;29;20032;-76
2022/11/21 00:22:48;;;;;;;8.10;6.43;;;5.80;99.90;;;;;;4931925;29;20039;-76
2022/11/21 00:25:14;;;;;;;24.88;6.97;;;5.80;99.90;;;;;;4931645;29;20060;-76
2022/11/21 00:27:41;;;;;;;14.20;5.57;;;5.90;99.90;;;;;;4948483;29;20088;-76
2022/11/21 00:30:09;;;;;;;18.38;5.70;;;5.80;99.90;;;;;;4948876;29;20044;-76
2022/11/21 00:32:34;;;;;;;7.72;5.18;;;5.80;99.90;;;;;;4948644;29;20031;-76
2022/11/21 00:35:01;;;;;;;14.13;5.03;;;5.80;99.90;;;;;;4948621;29;20083;-76
2022/11/21 00:37:27;;;;;;;13.75;5.22;;;5.80;99.90;;;;;;4931565;29;20061;-75
2022/11/21 00:39:53;;;;;;;14.77;6.18;;;5.80;99.90;;;;;;4930922;29;20067;-76
2022/11/21 00:42:20;;;;;;;13.18;6.50;;;5.80;99.90;;;;;;4948010;29;20043;-76
2022/11/21 00:44:46;;;;;;;11.30;5.95;;;5.80;99.90;;;;;;4931480;29;20034;-76
2022/11/21 00:47:11;;;;;;;9.40;3.10;;;5.80;99.90;;;;;;4948449;29;20043;-76
2022/11/21 00:49:37;;;;;;;13.82;5.60;;;5.70;99.90;;;;;;4948209;29;20046;-76
2022/11/21 00:52:03;;;;;;;7.35;4.43;;;5.70;99.90;;;;;;4915620;29;20035;-76
2022/11/21 00:54:28;;;;;;;11.57;5.88;;;5.70;99.90;;;;;;4931360;29;20032;-76
2022/11/21 00:56:54;;;;;;;16.58;5.90;;;5.70;99.90;;;;;;4948108;29;20039;-76
2022/11/21 00:59:21;;;;;;;7.35;3.72;;;5.60;99.90;;;;;;4948319;29;20465;-76
2022/11/21 01:01:46;;;;;;;20.42;6.85;;;5.60;99.90;;;;;;4931231;29;20113;-76
2022/11/21 01:04:12;;;;;;;25.75;6.72;;;5.70;99.90;;;;;;4931130;29;20027;-76
2022/11/21 01:06:39;;;;;;;9.95;5.50;;;5.80;99.90;;;;;;4915419;29;20035;-76
2022/11/21 01:09:04;;;;;;;14.00;7.13;;;5.80;99.90;;;;;;4931118;29;20099;-76
2022/11/21 01:11:30;;;;;;;7.95;3.40;;;5.80;99.90;;;;;;4947574;29;20032;-75
2022/11/21 01:13:56;;;;;;;14.93;3.78;;;5.80;99.90;;;;;;4948493;29;20393;-76
2022/11/21 01:16:25;;;;;;;6.25;3.38;;;5.80;99.90;;;;;;4930954;29;20036;-76
2022/11/21 01:18:51;;;;;;;13.95;3.83;;;5.80;99.90;;;;;;4931171;29;20087;-76
2022/11/21 01:21:20;;;;;;;15.25;4.93;;;5.80;99.90;;;;;;4947882;29;20039;-76
2022/11/21 01:23:46;;;;;;;14.02;5.68;;;5.70;99.90;;;;;;4948151;29;20036;-76
2022/11/21 01:26:16;;;;;;;7.93;4.57;;;5.70;99.90;;;;;;4948006;29;20079;-76
2022/11/21 01:28:42;;;;;;;6.93;5.05;;;5.70;99.90;;;;;;4931219;29;20073;-76
2022/11/21 01:31:09;;;;;;;7.95;4.25;;;5.70;99.90;;;;;;4947890;29;20039;-76
2022/11/21 01:33:35;;;;;;;16.77;5.22;;;5.70;99.90;;;;;;4948099;29;20035;-76
2022/11/21 01:36:10;;;;;;;4.43;3.88;;;5.70;99.90;;;;;;4937843;29;20386;-76
2022/11/21 01:38:37;;;;;;;6.55;4.10;;;5.70;99.90;;;;;;4947669;29;20032;-76
2022/11/21 01:41:03;;;;;;;8.80;3.65;;;5.60;99.90;;;;;;4947974;29;20043;-76
2022/11/21 01:43:29;;;;;;;10.68;4.03;;;5.50;99.90;;;;;;4930861;29;20032;-76
2022/11/21 01:45:59;;;;;;;4.72;3.85;;;5.30;99.90;;;;;;4948020;29;20028;-76
2022/11/21 01:48:28;;;;;;;;;;;5.30;99.90;;;;;;4948267;29;20413;-76
2022/11/21 01:50:59;;;;;;;9.02;2.58;;;5.40;99.90;;;;;;4947662;29;20005;-76
2022/11/21 01:53:25;;;;;;;7.07;3.67;;;5.40;99.90;;;;;;4948035;29;20095;-76
2022/11/21 01:55:52;;;;;;;5.97;3.72;;;5.40;99.90;;;;;;4951078;29;20064;-76
2022/11/21 01:58:20;;;;;;;8.32;4.25;;;5.50;99.90;;;;;;4950981;29;20046;-77
2022/11/21 02:00:47;;;;;;;9.27;4.30;;;5.50;99.90;;;;;;4934053;29;20055;-77
2022/11/21 02:03:17;;;;;;;6.25;3.83;;;5.60;99.90;;;;;;4951341;29;20040;-77
2022/11/21 02:05:43;;;;;;;7.13;3.85;;;5.60;99.90;;;;;;4951185;29;20028;-76
2022/11/21 02:08:22;;;;;;;8.20;3.75;;;5.70;99.90;;;;;;4951548;29;20031;-77
2022/11/21 02:11:15;;;;;;;9.80;4.05;;;5.80;99.90;;;;;;4951386;29;20044;-77
2022/11/21 02:13:41;;;;;;;4.90;3.67;;;5.80;99.90;;;;;;4933809;29;20044;-77
2022/11/21 02:16:07;;;;;;;14.93;3.30;;;5.80;99.90;;;;;;4934117;29;20032;-77
2022/11/21 02:18:33;;;;;;;7.93;3.72;;;5.90;99.90;;;;;;4933881;29;20044;-78
2022/11/21 02:21:22;;;;;;;10.40;4.72;;;5.90;99.90;;;;;;4951151;29;20036;-77
2022/11/21 02:24:06;;;;;;;7.40;3.85;;;5.90;99.90;;;;;;4942134;29;20046;-77
2022/11/21 02:26:34;;;;;;;7.18;4.45;;;6.00;99.90;;;;;;4950975;29;20051;-77
2022/11/21 02:29:00;;;;;;;5.10;3.00;;;6.00;99.90;;;;;;4933705;29;20023;-77
2022/11/21 02:31:25;;;;;;;6.80;3.90;;;6.00;99.90;;;;;;4936494;29;20059;-78
2022/11/21 02:33:51;;;;;;;4.55;3.30;;;6.00;99.90;;;;;;4950915;29;20040;-77
2022/11/21 02:36:39;;;;;;;11.80;4.20;;;6.10;99.90;;;;;;4950299;29;20039;-77
2022/11/21 02:39:06;;;;;;;13.48;2.80;;;6.10;99.90;;;;;;4950454;29;20406;-77
2022/11/21 02:41:36;;;;;;;4.80;3.70;;;6.10;99.90;;;;;;4933316;29;20187;-77
2022/11/21 02:44:16;;;;;;;4.88;3.05;;;6.10;99.90;;;;;;4950643;29;20027;-77
2022/11/21 02:46:49;;;;;;;4.93;3.83;;;6.20;99.90;;;;;;4950690;29;20035;-77
2022/11/21 02:49:24;;;;;;;10.05;4.85;;;6.20;99.90;;;;;;4917737;29;20068;-77
2022/11/21 02:51:50;;;;;;;3.47;1.98;;;6.10;99.90;;;;;;4950433;29;20039;-77
2022/11/21 02:54:16;;;;;;;2.90;2.67;;;6.10;99.90;;;;;;4950062;29;20027;-77
2022/11/21 02:56:41;;;;;;;3.63;2.85;;;5.90;99.90;;;;;;4950556;29;20401;-77
2022/11/21 02:59:08;;;;;;;6.20;2.53;;;5.90;99.90;;;;;;4933520;29;20055;-77
2022/11/21 03:01:33;;;;;;;8.25;3.20;;;5.60;99.90;;;;;;4950290;29;20111;-78
2022/11/21 03:03:59;;;;;;;5.57;2.60;;;5.50;99.90;;;;;;4933134;29;20031;-77
2022/11/21 03:06:26;;;;;;;4.40;3.13;;;5.40;99.90;;;;;;4949972;29;20035;-77
2022/11/21 03:08:51;;;;;;;15.23;3.30;;;5.30;99.90;;;;;;4949795;29;20027;-77
2022/11/21 03:11:17;;;;;;;3.58;2.92;;;5.20;99.90;;;;;;4933106;29;20444;-77
2022/11/21 03:13:43;;;;;;;4.78;2.50;;;5.20;99.90;;;;;;4950095;29;20122;-76
2022/11/21 03:16:09;;;;;;;20.20;4.15;;;5.10;99.90;;;;;;4949779;29;20043;-77
2022/11/21 03:18:35;;;;;;;11.85;3.55;;;5.00;99.90;;;;;;4917514;29;20093;-78
2022/11/21 03:21:01;;;;;;;7.45;2.88;;;5.00;99.90;;;;;;4932655;29;20501;-78
2022/11/21 03:23:27;;;;;;;8.98;3.10;;;5.00;99.90;;;;;;4917113;29;20027;-78
2022/11/21 03:25:52;;;;;;;3.20;2.63;;;4.90;99.90;;;;;;4932627;29;20044;-78
2022/11/21 03:28:18;;;;;;;16.58;3.58;;;4.90;99.90;;;;;;4949610;29;20035;-77
2022/11/21 03:30:44;;;;;;;12.52;2.90;;;4.90;99.90;;;;;;4932896;29;20027;-76
2022/11/21 03:33:09;;;;;;;4.80;2.97;;;4.80;99.90;;;;;;4948610;29;20067;-75
2022/11/21 03:35:35;;;;;;;9.32;4.82;;;4.80;99.90;;;;;;4949749;29;20035;-77
2022/11/21 03:38:01;;;;;;;4.10;2.17;;;4.60;99.90;;;;;;4949625;29;20039;-77
2022/11/21 03:40:27;;;;;;;10.20;3.17;;;4.60;99.90;;;;;;4938656;29;20056;-77
2022/11/21 03:42:53;;;;;;;5.65;3.17;;;4.60;99.90;;;;;;4949343;29;20034;-77
2022/11/21 03:45:19;;;;;;;5.75;3.45;;;4.60;99.90;;;;;;4932654;29;20087;-75
2022/11/21 03:47:45;;;;;;;6.07;3.33;;;4.60;99.90;;;;;;4949422;29;20036;-77
2022/11/21 03:50:13;;;;;;;5.75;2.30;;;4.60;99.90;;;;;;4916529;29;20041;-77
2022/11/21 03:52:39;;;;;;;2.78;2.28;;;4.50;99.90;;;;;;4949540;29;20047;-77
2022/11/21 03:55:05;;;;;;;2.88;2.00;;;4.40;99.90;;;;;;4948983;29;20028;-77
2022/11/21 03:57:31;;;;;;;4.45;1.73;;;4.40;99.90;;;;;;4932000;29;20040;-77
2022/11/21 03:59:57;;;;;;;3.85;3.55;;;4.30;99.90;;;;;;4949380;29;20159;-77
2022/11/21 04:02:23;;;;;;;6.40;4.28;;;4.20;99.90;;;;;;4949020;29;20035;-77
2022/11/21 04:04:48;;;;;;;5.25;3.55;;;4.10;99.90;;;;;;4949010;29;20063;-77
2022/11/21 04:07:15;;;;;;;6.25;3.72;;;4.10;99.90;;;;;;4916449;29;20032;-77
2022/11/21 04:09:40;;;;;;;11.30;4.65;;;4.20;99.90;;;;;;4948769;29;20034;-77
2022/11/21 04:12:06;;;;;;;7.38;3.85;;;4.20;99.90;;;;;;4932045;29;20059;-77
2022/11/21 04:14:32;;;;;;;10.18;5.95;;;4.20;99.90;;;;;;4948966;29;20042;-77
2022/11/21 04:16:58;;;;;;;7.70;4.78;;;4.40;99.90;;;;;;4948517;29;20039;-77
2022/11/21 04:19:24;;;;;;;7.88;5.75;;;4.60;99.90;;;;;;4931887;29;20115;-77
2022/11/21 04:21:50;;;;;;;14.95;7.10;;;4.70;99.90;;;;;;4931798;29;20042;-77
2022/11/21 04:24:15;;;;;;;18.15;7.18;;;4.90;99.90;;;;;;4948448;29;20031;-77
2022/11/21 04:26:42;;;;;;;10.02;6.80;;;4.90;99.90;;;;;;4948505;29;20086;-77
2022/11/21 04:29:07;;;;;;;6.47;5.88;;;5.00;99.90;;;;;;4948812;29;20028;-77
2022/11/21 04:31:33;;;;;;;12.07;6.30;;;5.10;99.90;;;;;;4931427;29;20042;-77
2022/11/21 04:33:59;;;;;;;6.72;5.78;;;5.20;99.90;;;;;;4948913;29;20044;-77
2022/11/21 04:36:25;;;;;;;8.38;4.75;;;5.30;99.90;;;;;;4948602;29;20068;-77
2022/11/21 04:38:51;;;;;;;13.77;6.88;;;5.40;99.90;;;;;;4930973;29;20520;-78
2022/11/21 04:41:17;;;;;;;8.35;6.82;;;5.30;99.90;;;;;;4948345;29;20047;-77
2022/11/21 04:43:42;;;;;;;9.63;5.13;;;5.40;99.90;;;;;;4948548;29;20046;-77
2022/11/21 04:46:08;;;;;;;5.63;5.05;;;5.50;99.90;;;;;;4948464;29;20040;-78
2022/11/21 04:48:34;;;;;;;6.25;4.30;;;5.50;99.90;;;;;;4948511;29;20040;-77
2022/11/21 04:51:00;;;;;;;8.32;6.10;;;5.50;99.90;;;;;;4948444;29;20458;-77
2022/11/21 04:53:25;;;;;;;9.23;5.18;;;5.50;99.90;;;;;;4948486;29;20544;-78
2022/11/21 04:55:51;;;;;;;9.63;5.97;;;5.50;99.90;;;;;;4948252;29;20036;-78
2022/11/21 04:58:18;;;;;;;13.77;8.40;;;5.50;99.90;;;;;;4931088;29;20099;-77
2022/11/21 05:00:44;;;;;;;7.18;6.45;;;5.50;99.90;;;;;;4948179;29;20478;-77
2022/11/21 05:03:10;;;;;;;12.60;8.82;;;5.50;99.90;;;;;;4948499;29;20042;-77
2022/11/21 05:05:36;;;;;;;8.50;7.38;;;5.50;99.90;;;;;;4948292;29;20028;-77
2022/11/21 05:08:02;;;;;;;7.03;5.93;;;5.50;99.90;;;;;;4948257;29;20028;-78
2022/11/21 05:10:28;;;;;;;6.88;6.28;;;5.50;99.90;;;;;;4948119;29;20485;-77
2022/11/21 05:15:43;;;;;;;7.00;6.18;;;5.60;99.90;;;;;;4948099;29;20038;-77
2022/11/21 05:18:09;;;;;;;10.13;7.45;;;5.60;99.90;;;;;;4931157;29;20051;-77
2022/11/21 05:20:35;;;;;;;7.20;6.47;;;5.60;99.90;;;;;;4948193;29;20083;-77
2022/11/21 05:23:01;;;;;;;5.85;5.32;;;5.60;99.90;;;;;;4948135;29;20482;-77
2022/11/21 05:25:27;;;;;;;15.05;7.72;;;5.70;99.90;;;;;;4947057;29;20022;-77
2022/11/21 05:27:55;;;;;;;10.32;8.52;;;5.70;99.90;;;;;;4947230;29;20028;-77
2022/11/21 05:30:21;;;;;;;6.60;5.32;;;5.70;99.90;;;;;;4933765;29;20047;-78
2022/11/21 05:32:47;;;;;;;13.32;5.57;;;5.70;99.90;;;;;;4951432;29;20028;-77
2022/11/21 05:35:12;;;;;;;7.47;6.35;;;5.70;99.90;;;;;;4934881;29;20059;-77
2022/11/21 05:37:38;;;;;;;9.18;7.40;;;5.70;99.90;;;;;;4951835;29;20109;-77
2022/11/21 05:40:05;;;;;;;5.28;4.78;;;5.70;99.90;;;;;;4947971;29;20059;-78
2022/11/21 05:45:16;;;;;;;17.95;7.75;;;5.70;99.90;;;;;;4943297;29;20032;-76
2022/11/21 05:47:42;;;;;;;8.32;7.53;;;5.70;99.90;;;;;;4951112;29;20056;-78
2022/11/21 05:50:08;;;;;;;6.75;6.10;;;5.70;99.90;;;;;;4951660;29;20044;-77
2022/11/21 05:52:34;;;;;;;7.15;6.60;;;5.60;99.90;;;;;;4933153;29;20036;-77
2022/11/21 05:55:00;;;;;;;11.95;7.03;;;5.50;99.90;;;;;;4933877;29;20036;-77
2022/11/21 05:57:25;;;;;;;8.88;8.10;;;5.50;99.90;;;;;;4933535;29;20095;-78
2022/11/21 05:59:51;;;;;;;7.57;6.88;;;5.40;99.90;;;;;;4951312;29;20035;-77
2022/11/21 06:05:01;;;;;;;12.23;8.10;;;5.60;99.90;;;;;;4936614;29;20052;-77
2022/11/21 06:07:27;;;;;;;16.42;9.35;;;5.60;99.90;;;;;;4953203;29;20031;-78
2022/11/21 06:09:53;;;;;;;13.93;9.10;;;5.60;99.90;;;;;;4934173;29;20020;-77
2022/11/21 06:12:18;;;;;;;11.48;10.00;;;5.60;99.90;;;;;;4933894;29;20441;-77
2022/11/21 06:14:44;;;;;;;16.98;12.48;;;5.70;99.90;;;;;;4917759;29;20055;-77
2022/11/21 06:17:11;;;;;;;16.52;12.63;;;5.70;99.90;;;;;;4921796;29;20035;-78
2022/11/21 06:19:37;;;;;;;14.60;11.77;;;5.70;99.90;;;;;;4933611;29;20499;-77
2022/11/21 06:22:03;;;;;;;14.38;12.90;;;5.80;99.90;;;;;;4951008;29;20035;-74
2022/11/21 06:24:28;;;;;;;17.60;13.15;;;5.70;99.90;;;;;;4933803;29;20087;-75
2022/11/21 06:26:55;;;;;;;13.88;12.57;;;5.70;99.90;;;;;;4933559;29;20032;-76
2022/11/21 06:29:24;;;;;;;15.82;12.77;;;5.60;99.90;;;;;;4933735;29;20028;-76
2022/11/21 06:31:49;;;;;;;19.85;14.57;;;5.50;99.90;;;;;;4950841;29;20043;-75
2022/11/21 06:34:15;;;;;;;17.48;12.60;;;5.50;99.90;;;;;;4950102;29;20044;-76
2022/11/21 06:36:43;;;;;;;15.32;13.75;;;5.50;99.90;;;;;;4950922;29;20044;-76
2022/11/21 06:39:09;;;;;;;17.48;12.48;;;5.50;99.90;;;;;;4950403;29;20055;-76
2022/11/21 06:41:35;;;;;;;12.88;11.40;;;5.40;99.90;;;;;;4950018;29;20040;-76
2022/11/21 06:44:00;;;;;;;15.25;11.80;;;5.30;99.90;;;;;;4949702;29;20055;-75
2022/11/21 06:46:26;;;;;;;11.85;10.70;;;5.30;99.90;;;;;;4933320;29;20038;-76
2022/11/21 06:48:53;;;;;;;12.82;10.35;;;5.30;99.90;;;;;;4950428;29;20103;-76
2022/11/21 06:51:23;;;;;;;12.00;10.68;;;5.30;99.90;;;;;;4950537;29;20035;-76
2022/11/21 06:53:54;;;;;;;12.90;9.90;;;5.40;99.90;;;;;;4933178;29;20393;-75
2022/11/21 06:56:24;;;;;;;11.13;9.93;;;5.40;99.90;;;;;;4933189;29;20043;-76
2022/11/21 06:58:51;;;;;;;13.52;12.10;;;5.50;99.90;;;;;;4950434;29;20039;-77
2022/11/21 07:01:17;;;;;;;11.70;9.93;;;5.50;99.90;;;;;;4950334;29;20046;-75
2022/11/21 07:03:44;;;;;;;13.15;11.05;;;5.50;99.90;;;;;;4950185;29;20036;-76
2022/11/21 07:06:10;;;;;;;24.50;11.25;;;5.50;99.90;;;;;;4950310;29;20447;-76
2022/11/21 07:08:36;;;;;;;10.57;9.57;;;5.50;99.90;;;;;;4949657;29;20103;-76
2022/11/21 07:11:04;;;;;;;10.90;9.70;;;5.50;99.90;;;;;;4949627;29;20063;-77
2022/11/21 07:13:31;;;;;;;12.25;11.05;;;5.50;99.90;;;;;;4949929;29;20036;-74
2022/11/21 07:16:08;;;;;;;16.27;13.18;;;5.50;99.90;;;;;;4950147;29;20083;-74
2022/11/21 07:18:34;;;;;;;9.75;8.73;;;5.50;99.90;;;;;;4950014;29;20032;-74
2022/11/21 07:21:05;;;;;;;11.00;9.77;;;5.60;99.90;;;;;;4932759;29;20032;-76
2022/11/21 07:23:31;;;;;;;10.43;9.48;;;5.60;99.90;;;;;;4948967;29;20088;-76
2022/11/21 07:26:02;;;;;;;11.60;6.05;;;5.60;99.90;;;;;;4932629;29;20131;-77
2022/11/21 07:28:28;;;;;;;11.68;8.85;;;5.70;99.90;;;;;;4949781;29;20087;-75
2022/11/21 07:30:58;;;;;;;9.70;8.63;;;5.70;99.90;;;;;;4949804;29;20024;-76
2022/11/21 07:33:24;;;;;;;12.00;8.50;;;5.70;99.90;;;;;;4949935;29;20397;-76
2022/11/21 07:35:50;;;;;;;13.02;7.85;;;5.80;99.90;;;;;;4932472;29;20036;-76
2022/11/21 07:38:16;;;;;;;6.55;5.75;;;5.80;99.90;;;;;;4949185;29;20043;-76
2022/11/21 07:40:43;;;;;;;9.70;8.75;;;5.80;99.90;;;;;;4949421;29;20043;-76
2022/11/21 07:43:10;;;;;;;10.27;9.13;;;5.80;99.90;;;;;;4949596;29;20036;-76
2022/11/21 07:45:35;;;;;;;11.60;7.95;;;5.80;99.90;;;;;;4949333;29;20035;-76
2022/11/21 07:48:04;;;;;;;12.07;9.02;;;5.80;99.90;;;;;;4949729;29;20027;-76
2022/11/21 07:50:30;;;;;;;9.98;7.55;;;5.90;99.90;;;;;;4949403;29;20112;-76
2022/11/21 07:53:05;;;;;;;9.45;7.38;;;5.90;99.90;;;;;;4948092;29;20095;-76
2022/11/21 07:55:31;;;;;;;11.57;7.05;;;5.90;99.90;;;;;;4949134;29;20028;-75
2022/11/21 07:58:01;;;;;;;14.73;8.88;;;5.90;99.90;;;;;;4932236;29;20074;-76
2022/11/21 08:00:29;;;;;;;8.50;7.20;;;5.90;99.90;;;;;;4949213;29;20417;-76
2022/11/21 08:02:54;;;;;;;17.65;7.78;;;5.80;99.90;;;;;;4932324;29;20024;-76
2022/11/21 08:05:20;;;;;;;7.20;6.38;;;5.90;99.90;;;;;;4948350;29;20062;-75
2022/11/21 08:07:47;;;;;;;13.95;9.30;;;5.90;99.90;;;;;;4948991;29;20095;-76
2022/11/21 08:10:13;;;;;;;8.73;6.88;;;6.80;99.90;;;;;;4948659;29;20055;-76
2022/11/21 08:12:38;;;;;;;8.57;6.93;;;8.60;99.90;;;;;;4931796;29;20130;-75
2022/11/21 08:15:05;;;;;;;8.93;5.60;;;10.20;99.90;;;;;;4948158;29;20043;-76
2022/11/21 08:17:31;;;;;;;14.32;4.45;;;11.60;99.90;;;;;;4938387;29;20028;-76
2022/11/21 08:19:59;;;;;;;4.72;3.05;;;12.90;99.90;;;;;;4931668;29;20044;-76
2022/11/21 08:22:25;;;;;;;5.15;3.47;;;13.80;99.90;;;;;;4948769;29;20505;-76
2022/11/21 08:24:53;;;;;;;7.25;3.10;;;13.80;99.90;;;;;;4947985;29;20026;-76
2022/11/21 08:27:20;;;;;;;7.05;2.95;;;15.00;99.90;;;;;;4946621;29;20758;-76
2022/11/21 08:29:49;;;;;;;3.97;3.65;;;15.50;99.90;;;;;;4948332;29;20422;-74
2022/11/21 08:32:15;;;;;;;3.90;2.65;;;16.80;99.90;;;;;;4948140;29;20054;-76
2022/11/21 08:34:40;;;;;;;5.13;2.47;;;16.10;99.90;;;;;;4934846;29;20034;-76
2022/11/21 08:37:07;;;;;;;6.07;3.92;;;16.80;99.90;;;;;;4966547;29;20031;-75
2022/11/21 08:39:33;;;;;;;5.80;4.65;;;17.70;99.90;;;;;;4953454;29;20044;-75
2022/11/21 08:42:01;;;;;;;9.60;8.68;;;18.20;99.90;;;;;;4948615;29;20067;-76
2022/11/21 08:44:28;;;;;;;6.90;4.15;;;19.00;99.90;;;;;;4948190;29;20036;-76
2022/11/21 08:46:55;;;;;;;8.13;7.35;;;19.10;99.90;;;;;;4948462;29;20028;-75
2022/11/21 08:49:21;;;;;;;6.32;5.82;;;18.70;99.90;;;;;;4931045;29;20059;-75
2022/11/21 08:51:50;;;;;;;3.75;3.42;;;19.30;99.90;;;;;;4948139;29;20044;-76
2022/11/21 08:54:21;;;;;;;5.80;4.55;;;17.90;99.90;;;;;;4930815;29;20036;-75
2022/11/21 08:56:47;;;;;;;3.13;2.80;;;17.20;99.90;;;;;;4948239;29;20067;-76
2022/11/21 08:59:15;;;;;;;3.72;2.83;;;17.30;99.90;;;;;;4948091;29;20031;-75
2022/11/21 09:01:40;;;;;;;4.50;2.65;;;16.50;99.90;;;;;;4948465;29;20036;-76
2022/11/21 09:04:07;;;;;;;8.73;3.88;;;15.60;99.90;;;;;;4930145;29;20032;-76
2022/11/21 09:06:33;;;;;;;7.80;4.55;;;15.60;99.90;;;;;;4948304;29;20031;-76
2022/11/21 09:08:59;;;;;;;8.02;4.38;;;15.60;99.90;;;;;;4947992;29;20023;-75
2022/11/21 09:11:25;;;;;;;5.03;2.85;;;15.90;99.90;;;;;;4948133;29;20037;-75
2022/11/21 09:19:22;;;;;;;6.50;3.67;;;17.00;99.90;;;;;;4930232;29;20035;-76
2022/11/21 09:21:51;;;;;;;10.35;3.45;;;18.10;99.90;;;;;;4948161;29;20124;-75
2022/11/21 09:24:18;;;;;;;8.13;3.90;;;18.00;99.90;;;;;;4947815;29;20032;-75
2022/11/21 09:26:44;;;;;;;9.27;2.78;;;18.60;99.90;;;;;;4930408;29;20054;-75
2022/11/21 09:29:10;;;;;;;5.85;2.20;;;19.60;99.00;;;;;;4948011;29;20394;-76
2022/11/21 09:31:39;;;;;;;6.18;3.00;;;19.70;99.20;;;;;;4948083;29;20070;-75
2022/11/21 09:34:05;;;;;;;2.85;2.03;;;20.50;98.40;;;;;;4946766;29;20424;-75
2022/11/21 09:36:30;;;;;;;14.07;3.20;;;19.90;98.20;;;;;;4914399;29;20055;-75
2022/11/21 09:38:57;;;;;;;5.20;2.95;;;19.40;98.30;;;;;;4947608;29;20047;-75
2022/11/21 09:41:53;;;;;;;8.45;4.10;;;18.70;98.60;;;;;;4947737;29;20055;-75
2022/11/21 09:44:38;;;;;;;4.53;1.60;;;20.10;98.10;;;;;;4947326;29;20035;-75
2022/11/21 09:47:21;;;;;;;11.05;3.10;;;20.60;97.30;;;;;;4947889;29;20385;-75
2022/11/21 09:49:54;;;;;;;3.17;2.22;;;19.30;97.40;;;;;;4944102;29;20028;-75
2022/11/21 09:52:23;;;;;;;6.22;3.70;;;19.50;97.60;;;;;;4947752;29;20043;-75
2022/11/21 09:54:54;;;;;;;4.72;2.58;;;19.00;98.50;;;;;;4947635;29;20036;-76
2022/11/21 09:57:24;;;;;;;5.90;3.10;;;17.90;99.10;;;;;;4929108;29;20036;-75
2022/11/21 09:59:51;;;;;;;3.22;2.58;;;16.70;99.90;;;;;;4929510;29;20103;-76
2022/11/21 10:02:20;;;;;;;3.88;2.75;;;16.40;99.90;;;;;;4947510;29;20020;-76
2022/11/21 10:04:47;;;;;;;7.22;3.85;;;16.00;99.90;;;;;;4947661;29;20028;-75
2022/11/21 10:07:18;;;;;;;6.72;2.78;;;15.40;99.90;;;;;;4947353;29;20121;-75
2022/11/21 10:09:59;;;;;;;6.13;4.00;;;15.70;99.90;;;;;;4947565;29;20134;-76
2022/11/21 10:12:47;;;;;;;7.90;4.03;;;16.30;99.90;;;;;;4946745;29;20056;-75
2022/11/21 10:15:51;;;;;;;6.82;2.28;;;15.50;99.90;;;;;;4940769;29;20028;-76
2022/11/21 10:18:45;;;;;;;15.52;4.03;;;16.60;99.90;;;;;;4951107;29;20039;-76
2022/11/21 10:21:11;;;;;;;13.48;5.57;;;16.90;99.90;;;;;;4945605;29;20449;-75
2022/11/21 10:23:55;;;;;;;6.22;5.43;;;17.10;99.90;;;;;;4951135;29;20024;-75
2022/11/21 10:26:38;;;;;;;3.42;2.53;;;17.30;99.90;;;;;;4951104;29;20038;-75
2022/11/21 10:29:22;;;;;;;3.35;2.50;;;16.40;99.90;;;;;;4950871;29;20035;-75
2022/11/21 10:31:49;;;;;;;8.82;4.35;;;16.70;99.90;;;;;;4950759;29;20036;-75
2022/11/21 10:34:21;;;;;;;6.97;3.45;;;16.20;99.90;;;;;;4950835;29;20449;-76
2022/11/21 10:36:54;;;;;;;3.42;1.98;;;17.20;99.90;;;;;;4933903;29;20032;-75
2022/11/21 10:39:31;;;;;;;8.15;3.63;;;17.90;99.40;;;;;;4954583;29;20055;-75
2022/11/21 10:42:00;;;;;;;9.80;1.98;;;18.00;99.50;;;;;;4950666;29;20063;-75
2022/11/21 10:47:27;;;;;;;2.65;2.08;;;15.50;99.90;;;;;;4950437;29;20028;-75
2022/11/21 10:50:07;;;;;;;5.20;3.15;;;14.30;99.90;;;;;;4950579;29;20055;-75
2022/11/21 10:52:44;;;;;;;3.33;2.10;;;14.10;99.90;;;;;;4950853;29;20028;-74
2022/11/21 10:55:13;;;;;;;3.72;2.28;;;14.00;99.90;;;;;;4950754;29;20035;-75
2022/11/21 10:57:47;;;;;;;5.68;4.28;;;13.40;99.90;;;;;;4933404;29;20036;-75
2022/11/21 11:00:19;;;;;;;6.50;3.22;;;13.50;99.90;;;;;;4949585;29;20091;-75
2022/11/21 11:03:06;;;;;;;4.90;3.05;;;13.30;99.90;;;;;;4950476;29;20051;-75
2022/11/21 11:05:36;;;;;;;4.43;1.55;;;13.30;99.90;;;;;;4950437;29;20028;-75
2022/11/21 11:08:02;;;;;;;;;;;13.00;99.90;;;;;;4950851;29;20035;-75
2022/11/21 11:10:29;;;;;;;2.03;1.33;;;13.40;99.90;;;;;;4950334;29;19911;-75
2022/11/21 11:16:02;;;;;;;5.05;2.78;;;12.00;99.90;;;;;;4949717;29;20032;-75
2022/11/21 11:18:28;;;;;;;4.78;3.15;;;11.60;99.90;;;;;;4950121;29;20043;-75
2022/11/21 11:21:16;;;;;;;5.68;2.38;;;11.70;99.90;;;;;;4950098;29;20035;-75
2022/11/21 11:23:43;;;;;;;4.75;3.22;;;11.90;99.90;;;;;;4949550;29;20027;-75
2022/11/21 11:26:22;;;;;;;4.05;2.08;;;12.30;99.90;;;;;;4932356;29;20031;-75
2022/11/21 11:28:49;;;;;;;8.77;3.05;;;12.20;99.90;;;;;;4943799;29;20155;-75
2022/11/21 11:31:14;;;;;;;7.93;2.95;;;12.10;99.90;;;;;;4930868;29;20032;-75
2022/11/21 11:33:53;;;;;;;8.93;3.97;;;11.90;99.90;;;;;;4930977;29;20043;-75
2022/11/21 11:36:43;;;;;;;5.97;3.28;;;12.00;99.90;;;;;;4930821;29;20035;-75
2022/11/21 11:39:34;;;;;;;6.57;2.30;;;12.20;99.90;;;;;;4930656;29;20052;-75
2022/11/21 11:48:09;;;;;;;27.40;24.73;;;11.80;99.90;;;;;;4949423;29;20038;-75
2022/11/21 11:50:46;;;;;;;3.92;2.88;;;11.60;99.90;;;;;;4949617;29;20370;-75
2022/11/21 11:53:46;;;;;;;7.07;2.40;;;11.20;99.90;;;;;;4949278;29;20062;-75
2022/11/21 11:56:21;;;;;;;3.75;3.42;;;10.70;99.90;;;;;;4892280;29;20046;-75
2022/11/21 11:59:08;;;;;;;7.55;4.13;;;10.60;99.90;;;;;;4931658;29;20147;-75
2022/11/21 12:01:37;;;;;;;4.70;3.13;;;10.90;99.90;;;;;;4949095;29;20129;-75
2022/11/21 12:04:20;;;;;;;11.93;2.08;;;11.00;99.90;;;;;;4949314;29;20032;-75
2022/11/21 12:07:07;;;;;;;15.45;3.10;;;10.50;99.90;;;;;;4949447;29;20028;-75
2022/11/21 12:09:54;;;;;;;6.80;2.25;;;10.30;99.90;;;;;;4949253;29;20035;-75
2022/11/21 12:12:35;;;;;;;4.40;3.28;;;10.10;99.90;;;;;;4949286;29;20390;-75
2022/11/21 12:17:57;;;;;;;3.45;1.48;;;10.20;99.90;;;;;;4949063;29;19926;-75
2022/11/21 12:20:31;;;;;;;5.78;2.35;;;10.30;99.90;;;;;;4949188;29;20092;-74
2022/11/21 12:22:57;;;;;;;2.17;1.73;;;10.00;99.90;;;;;;4931982;29;20083;-75
2022/11/21 12:25:31;;;;;;;4.38;2.67;;;9.90;99.90;;;;;;4948892;29;20103;-75
2022/11/21 12:27:58;;;;;;;1.85;1.15;;;9.80;99.90;;;;;;4948971;29;20031;-76
2022/11/21 12:30:23;;;;;;;5.72;2.97;;;9.50;99.90;;;;;;4931918;29;20059;-75
2022/11/21 12:33:06;;;;;;;2.10;1.88;;;9.30;99.90;;;;;;4948777;29;20067;-75
2022/11/21 12:35:51;;;;;;;8.73;1.98;;;9.30;99.90;;;;;;4948762;29;20091;-75
2022/11/21 12:38:32;;;;;;;6.28;4.13;;;9.60;99.90;;;;;;4948319;29;20032;-76
2022/11/21 12:42:47;;;;;;;8.38;3.42;;;9.40;99.90;;;;;;4948994;29;20059;-75
2022/11/21 12:44:19;;;;;;;7.88;2.55;;;9.50;99.90;;;;;;4948661;29;20038;-75
2022/11/21 12:47:09;;;;;;;5.68;1.98;;;9.50;99.90;;;;;;4925926;29;20043;-75
2022/11/21 12:55:41;;;;;;;4.68;3.22;;;9.40;99.90;;;;;;4948335;29;20031;-75
2022/11/21 12:58:34;;;;;;;5.43;2.25;;;9.20;99.90;;;;;;4915336;29;20051;-75
2022/11/21 13:01:30;;;;;;;6.25;3.55;;;9.30;99.90;;;;;;4931322;29;20083;-75
2022/11/21 13:04:13;;;;;;;2.63;2.10;;;9.30;99.90;;;;;;4930928;29;20035;-75
2022/11/21 13:06:42;;;;;;;5.88;1.45;;;9.30;99.90;;;;;;4947831;29;20453;-75
2022/11/21 13:09:13;;;;;;;9.90;3.10;;;9.20;99.90;;;;;;4947960;29;20118;-75
2022/11/21 13:11:58;;;;;;;8.07;3.03;;;9.00;99.90;;;;;;4931254;29;20035;-75
2022/11/21 13:14:41;;;;;;;4.05;2.00;;;9.00;99.90;;;;;;4948121;29;20128;-75
2022/11/21 13:17:28;;;;;;;2.80;1.30;;;9.00;99.90;;;;;;4948333;29;20403;-75
2022/11/21 13:20:12;;;;;;;4.53;2.70;;;9.10;99.90;;;;;;4934182;29;20062;-75
2022/11/21 13:22:38;;;;;;;2.47;1.92;;;8.90;99.90;;;;;;4931193;29;20103;-75
2022/11/21 13:25:39;;;;;;;3.15;1.80;;;8.90;99.90;;;;;;4947876;29;20031;-74
2022/11/21 13:28:17;;;;;;;3.13;2.80;;;9.00;99.90;;;;;;4947937;29;20032;-75
2022/11/21 13:30:51;;;;;;;9.30;2.97;;;9.10;99.90;;;;;;4948095;29;20036;-74
2022/11/21 13:33:38;;;;;;;4.72;2.13;;;9.00;99.90;;;;;;4947692;29;20062;-75
2022/11/21 13:36:34;;;;;;;5.60;2.97;;;8.90;99.90;;;;;;4947719;29;20031;-74
2022/11/21 13:39:01;;;;;;;7.10;2.85;;;8.90;99.90;;;;;;4947604;29;20059;-74